Aérodrome :
LOGIN :

S'inscrire | Disclaimer

   EN    FR    IT 

 










Légende :    VFR   VFR Marginal   IFR   IFR Intensif   IFR Très Intensif
Visi : 
Plafond : 
>= 8 km
>= 3000ft
5 à 8 km
1000 à 3000 ft
1500m à 5 km
500 à 1000 ft
800 à 1500m
200 à 500 ft
< 800m
< 200 ft
Symboles :   Orages  Brouillard  Fortes neiges  Fortes précipitations  Vent > 20 kt
SIGMETs :   Divers  Orages  Givrage  Turbulence  Onde Orograph.  Cendres Volcan.






- Altitude de l'aérodrome : 527 ft
- Code IATA : DBV


LDDU - Dubrovnik

DERNIER METAR :
  • 221830Z 34003KT 300V030 CAVOK 19/17 Q1020 NOSIG

METARs EXPIRÉS :
  • 221800Z 32005KT 290V010 CAVOK 19/17 Q1021 NOSIG
  • 221730Z 29009KT CAVOK 19/17 Q1020 BECMG 29004KT
  • 221700Z 29009KT CAVOK 20/17 Q1020 BECMG 29004KT
  • 221630Z 29008KT CAVOK 20/18 Q1020 BECMG 29004KT
  • 221600Z 30009KT CAVOK 20/17 Q1020 BECMG 29004KT

TAF TAF LDDU
Valide du 22 à 18h jusqu'au 23 à 18h UTC


221725Z 2218/2318 29009KT CAVOK TX25/2313Z TN15/2305Z
BECMG 2218/2220 02006KT



MET'MAP, la Météo Aéronautique d'un coup d'oeil ! - Copyright ORBIFLY Décembre 2007 - Disclaimer

ORBIFLY MET'MAP TEAM :

Programmation & Développement : Alexandra Zaïnal
Conception & Développement : Baudouin d'Aumeries
Co-Programmation & Développement : Marc-Olivier Méhu
Soutien technique & logistique : Manuel Goepfert

Contact : metmap@orbifly.com




SOURCES & CREDITS :

   NOAA